Time;durP1;ratioP1;P1;durP2;ratioP2;P2;SDS_P1;SDS_P2;PMS_P1;PMS_P2;Temp;Humidity;BMP_temperature;BMP_pressure;BME280_temperature;BME280_humidity;BME280_pressure;Samples;Min_cycle;Max_cycle;Signal;HPM_P1;HPM_P2
2023/08/22 00:01:12;;;;;;;0.10;0.10;;;24.10;99.90;;;;;;5040847;28;20197;-81
2023/08/22 00:03:37;;;;;;;0.10;0.10;;;24.10;99.90;;;;;;5041482;28;20228;-82
2023/08/22 00:06:03;;;;;;;0.10;0.10;;;24.10;99.90;;;;;;5057050;28;20555;-81
2023/08/22 00:08:28;;;;;;;0.10;0.10;;;23.90;99.90;;;;;;5041905;28;20283;-81
2023/08/22 00:10:55;;;;;;;0.10;0.10;;;23.90;99.90;;;;;;5058506;28;20340;-82
2023/08/22 00:13:20;;;;;;;0.10;0.10;;;23.90;99.90;;;;;;5043587;28;20529;-81
2023/08/22 00:15:46;;;;;;;0.10;0.10;;;23.90;99.90;;;;;;5042158;28;20182;-82
2023/08/22 00:18:12;;;;;;;0.10;0.10;;;23.90;99.90;;;;;;5042172;28;20211;-82
2023/08/22 00:20:37;;;;;;;0.10;0.10;;;23.90;99.90;;;;;;5041908;28;20209;-81
2023/08/22 00:23:06;;;;;;;0.10;0.10;;;23.90;99.90;;;;;;5043694;28;20193;-82
2023/08/22 00:25:31;;;;;;;0.10;0.10;;;23.90;99.90;;;;;;5042693;28;20200;-82
2023/08/22 00:27:57;;;;;;;0.10;0.10;;;24.00;99.90;;;;;;5041988;28;20209;-81
2023/08/22 00:30:23;;;;;;;0.10;0.10;;;23.90;99.90;;;;;;5041030;28;20182;-82
2023/08/22 00:32:48;;;;;;;0.10;0.10;;;24.00;99.90;;;;;;5041960;28;20647;-82
2023/08/22 00:35:14;;;;;;;0.10;0.10;;;24.00;99.90;;;;;;5043258;28;20185;-82
2023/08/22 00:37:39;;;;;;;0.10;0.10;;;24.00;99.90;;;;;;5041890;28;20644;-82
2023/08/22 00:40:06;;;;;;;0.10;0.10;;;23.90;99.90;;;;;;5042634;28;20196;-82
2023/08/22 00:42:32;;;;;;;0.10;0.10;;;23.90;99.90;;;;;;5041602;28;20541;-81
2023/08/22 00:44:58;;;;;;;0.10;0.10;;;23.80;99.90;;;;;;5044332;28;20197;-82
2023/08/22 00:47:24;;;;;;;0.10;0.10;;;23.80;99.90;;;;;;5043696;28;20284;-82
2023/08/22 00:49:50;;;;;;;0.10;0.10;;;23.80;99.90;;;;;;5033259;28;20268;-82
2023/08/22 00:52:16;;;;;;;0.10;0.10;;;23.80;99.90;;;;;;5041010;28;20205;-82
2023/08/22 00:54:41;;;;;;;0.10;0.10;;;23.80;99.90;;;;;;5041692;28;20204;-82
2023/08/22 00:57:07;;;;;;;0.10;0.10;;;23.80;99.90;;;;;;5042971;28;20281;-82
2023/08/22 00:59:33;;;;;;;0.10;0.10;;;23.80;99.90;;;;;;5039904;28;20764;-82
2023/08/22 01:01:59;;;;;;;0.10;0.10;;;23.70;99.90;;;;;;5058098;28;20210;-82
2023/08/22 01:04:25;;;;;;;0.10;0.10;;;23.60;99.90;;;;;;5041094;28;20186;-82
2023/08/22 01:07:19;;;;;;;0.10;0.10;;;23.60;99.90;;;;;;5057766;28;20714;-81
2023/08/22 01:09:55;;;;;;;0.10;0.10;;;23.50;99.90;;;;;;5056964;28;20216;-81
2023/08/22 01:12:45;;;;;;;0.10;0.10;;;23.30;99.90;;;;;;5042886;28;20212;-82
2023/08/22 01:15:18;;;;;;;0.10;0.10;;;23.30;99.90;;;;;;5045375;28;20185;-82
2023/08/22 01:17:45;;;;;;;0.10;0.10;;;23.20;99.90;;;;;;5046599;28;20231;-81
2023/08/22 01:20:12;;;;;;;0.10;0.10;;;23.10;99.90;;;;;;5044686;28;20178;-81
2023/08/22 01:22:40;;;;;;;0.10;0.10;;;23.10;99.90;;;;;;5045012;28;20252;-82
2023/08/22 01:25:06;;;;;;;0.10;0.10;;;23.10;99.90;;;;;;5037750;28;20182;-82
2023/08/22 01:28:00;;;;;;;0.33;0.33;;;23.20;99.90;;;;;;5045346;28;20317;-81
2023/08/22 01:30:35;;;;;;;0.10;0.10;;;23.20;99.90;;;;;;5027718;28;20229;-81
2023/08/22 01:33:11;;;;;;;0.10;0.10;;;23.20;99.90;;;;;;5045286;28;21101;-81
2023/08/22 01:35:39;;;;;;;0.10;0.10;;;23.10;99.90;;;;;;5045004;28;20232;-82
2023/08/22 01:38:05;;;;;;;0.10;0.10;;;23.10;99.90;;;;;;5046462;28;20185;-82
2023/08/22 01:40:32;;;;;;;0.10;0.10;;;23.10;99.90;;;;;;5044535;28;20598;-82
2023/08/22 01:42:58;;;;;;;0.10;0.10;;;23.10;99.90;;;;;;5045726;28;20478;-82
2023/08/22 01:45:23;;;;;;;0.10;0.10;;;23.10;99.90;;;;;;5061730;28;20177;-82
2023/08/22 01:47:49;;;;;;;0.10;0.10;;;23.10;99.90;;;;;;5045687;28;20251;-82
2023/08/22 01:50:15;;;;;;;0.10;0.10;;;23.10;99.90;;;;;;5060521;28;20708;-82
2023/08/22 01:52:40;;;;;;;0.10;0.10;;;23.10;99.90;;;;;;5044306;28;20224;-82
2023/08/22 01:55:06;;;;;;;0.10;0.10;;;23.00;99.90;;;;;;5045166;28;20533;-81
2023/08/22 01:57:32;;;;;;;0.10;0.10;;;23.00;99.90;;;;;;5043420;28;20182;-82
2023/08/22 01:59:58;;;;;;;0.10;0.10;;;23.00;99.90;;;;;;5044084;28;20197;-82
2023/08/22 02:02:24;;;;;;;0.10;0.10;;;22.90;99.90;;;;;;5044161;28;20514;-81
2023/08/22 02:04:49;;;;;;;0.10;0.10;;;23.00;99.90;;;;;;5043900;28;20182;-82
2023/08/22 02:07:15;;;;;;;0.10;0.10;;;22.90;99.90;;;;;;5044335;28;20237;-82
2023/08/22 02:09:41;;;;;;;0.10;0.10;;;22.90;99.90;;;;;;5044133;28;20637;-82
2023/08/22 02:12:07;;;;;;;0.10;0.10;;;22.90;99.90;;;;;;5042258;28;20209;-82
2023/08/22 02:14:33;;;;;;;0.10;0.10;;;22.80;99.90;;;;;;5044000;28;20182;-81
2023/08/22 02:16:59;;;;;;;0.10;0.10;;;22.70;99.90;;;;;;5045685;28;20216;-82
2023/08/22 02:19:24;;;;;;;0.10;0.10;;;22.70;99.90;;;;;;5043234;28;20189;-82
2023/08/22 02:21:50;;;;;;;0.10;0.10;;;22.70;99.90;;;;;;5043561;28;20209;-81
2023/08/22 02:24:15;;;;;;;0.10;0.10;;;22.70;99.90;;;;;;5045554;28;20239;-83
2023/08/22 02:26:42;;;;;;;0.10;0.10;;;22.70;99.90;;;;;;5041970;28;20190;-82
2023/08/22 02:29:09;;;;;;;0.10;0.10;;;22.70;99.90;;;;;;5043864;28;20219;-81
2023/08/22 02:31:34;;;;;;;0.10;0.10;;;22.70;99.90;;;;;;5043468;28;20251;-82
2023/08/22 02:34:00;;;;;;;0.10;0.10;;;22.70;99.90;;;;;;5043392;28;20207;-81
2023/08/22 02:36:25;;;;;;;0.10;0.10;;;22.70;99.90;;;;;;5043196;28;20181;-81
2023/08/22 02:38:51;;;;;;;0.10;0.10;;;22.70;99.90;;;;;;5059923;28;20197;-81
2023/08/22 02:41:16;;;;;;;0.10;0.10;;;22.60;99.90;;;;;;5043101;28;20205;-82
2023/08/22 02:43:42;;;;;;;0.10;0.10;;;22.60;99.90;;;;;;5043399;28;20189;-82
2023/08/22 02:46:07;;;;;;;0.10;0.10;;;22.60;99.90;;;;;;5043075;28;20679;-82
2023/08/22 02:48:33;;;;;;;0.10;0.10;;;22.70;99.90;;;;;;5044149;28;20211;-82
2023/08/22 02:50:58;;;;;;;0.10;0.10;;;22.60;99.90;;;;;;5044117;28;20206;-81
2023/08/22 02:53:25;;;;;;;0.10;0.10;;;22.70;99.90;;;;;;5043608;28;20184;-82
2023/08/22 02:55:50;;;;;;;0.10;0.10;;;22.60;99.90;;;;;;5041156;28;20903;-82
2023/08/22 02:58:16;;;;;;;0.10;0.10;;;22.40;99.90;;;;;;5043434;28;20191;-81
2023/08/22 03:00:45;;;;;;;0.10;0.10;;;22.30;99.90;;;;;;5041990;28;20209;-82
2023/08/22 03:03:11;;;;;;;0.10;0.10;;;22.00;99.90;;;;;;5058985;28;20588;-82
2023/08/22 03:05:37;;;;;;;0.10;0.10;;;21.70;99.90;;;;;;5043589;28;20659;-82
2023/08/22 03:08:03;;;;;;;0.10;0.10;;;21.60;99.90;;;;;;5044327;28;20217;-82
2023/08/22 03:10:28;;;;;;;0.10;0.10;;;21.70;99.90;;;;;;5050305;28;20186;-81
2023/08/22 03:12:54;;;;;;;0.10;0.10;;;21.80;99.90;;;;;;5043144;28;20185;-82
2023/08/22 03:15:19;;;;;;;0.10;0.10;;;22.00;99.90;;;;;;5043428;28;20196;-81
2023/08/22 03:17:45;;;;;;;0.10;0.10;;;22.10;99.90;;;;;;5045362;28;20192;-82
2023/08/22 03:20:11;;;;;;;0.10;0.10;;;22.10;99.90;;;;;;5042851;28;20277;-82
2023/08/22 03:22:37;;;;;;;0.10;0.10;;;22.10;99.90;;;;;;5044815;28;20251;-81
2023/08/22 03:25:02;;;;;;;0.10;0.10;;;22.30;99.90;;;;;;5042680;28;20190;-81
2023/08/22 03:27:28;;;;;;;0.10;0.10;;;22.30;99.90;;;;;;5042996;28;20239;-81
2023/08/22 03:29:53;;;;;;;0.10;0.10;;;22.30;99.90;;;;;;5042740;28;20224;-82
2023/08/22 03:32:19;;;;;;;0.10;0.10;;;22.20;99.90;;;;;;5042568;28;20209;-81
2023/08/22 03:34:44;;;;;;;0.10;0.10;;;22.30;99.90;;;;;;5041292;28;20192;-81
2023/08/22 03:37:10;;;;;;;0.10;0.10;;;22.30;99.90;;;;;;5043357;28;20186;-81
2023/08/22 03:39:35;;;;;;;0.10;0.10;;;22.20;99.90;;;;;;5044324;28;20185;-82
2023/08/22 03:42:01;;;;;;;0.10;0.10;;;22.20;99.90;;;;;;5041996;28;20208;-81
2023/08/22 03:44:26;;;;;;;0.10;0.10;;;22.00;99.90;;;;;;5042812;28;20552;-82
2023/08/22 03:46:52;;;;;;;0.10;0.10;;;21.80;99.90;;;;;;5052055;28;20186;-82
2023/08/22 03:49:17;;;;;;;0.10;0.10;;;21.80;99.90;;;;;;5040777;28;20213;-82
2023/08/22 03:51:43;;;;;;;0.10;0.10;;;21.80;99.90;;;;;;5042704;28;20208;-82
2023/08/22 03:54:09;;;;;;;0.10;0.10;;;21.80;99.90;;;;;;5043216;28;20186;-81
2023/08/22 03:56:34;;;;;;;0.10;0.10;;;21.80;99.90;;;;;;5041501;28;20205;-81
2023/08/22 03:59:00;;;;;;;0.10;0.10;;;21.80;99.90;;;;;;5042253;28;20283;-82
2023/08/22 04:01:25;;;;;;;0.10;0.10;;;21.90;99.90;;;;;;5041981;28;20571;-82
2023/08/22 04:03:51;;;;;;;0.10;0.10;;;22.00;99.90;;;;;;5034565;28;20185;-82
2023/08/22 04:06:17;;;;;;;0.10;0.10;;;21.90;99.90;;;;;;5042019;28;20192;-82
2023/08/22 04:08:42;;;;;;;0.10;0.10;;;21.80;99.90;;;;;;5041648;28;20209;-82
2023/08/22 04:11:08;;;;;;;0.10;0.10;;;21.80;99.90;;;;;;5041874;28;20233;-81
2023/08/22 04:13:33;;;;;;;0.10;0.10;;;21.80;99.90;;;;;;5041791;28;20264;-81
2023/08/22 04:15:59;;;;;;;0.10;0.10;;;21.90;99.90;;;;;;5041796;28;20213;-81
2023/08/22 04:18:24;;;;;;;0.10;0.10;;;21.90;99.90;;;;;;5042556;28;20236;-81
2023/08/22 04:20:50;;;;;;;0.10;0.10;;;21.90;99.90;;;;;;5040445;28;20724;-81
2023/08/22 04:23:15;;;;;;;0.10;0.10;;;22.00;99.90;;;;;;5041880;28;20448;-81
2023/08/22 04:25:41;;;;;;;0.10;0.10;;;22.00;99.90;;;;;;5042542;28;20875;-81
2023/08/22 04:28:06;;;;;;;0.10;0.10;;;22.00;99.90;;;;;;5042139;28;20262;-81
2023/08/22 04:30:32;;;;;;;0.10;0.10;;;22.00;99.90;;;;;;5041279;28;20186;-81
2023/08/22 04:32:57;;;;;;;0.10;0.10;;;21.90;99.90;;;;;;5041544;28;20692;-82
2023/08/22 04:35:23;;;;;;;0.10;0.10;;;21.90;99.90;;;;;;5041306;28;20181;-82
2023/08/22 04:37:49;;;;;;;0.10;0.10;;;21.90;99.90;;;;;;5042932;28;21121;-82
2023/08/22 04:40:15;;;;;;;0.10;0.10;;;21.90;99.90;;;;;;5039906;28;20243;-81
2023/08/22 04:42:40;;;;;;;0.10;0.10;;;21.90;99.90;;;;;;5043113;28;20216;-82
2023/08/22 04:45:06;;;;;;;0.10;0.10;;;21.90;99.90;;;;;;5043444;28;20565;-81
2023/08/22 04:47:32;;;;;;;0.10;0.10;;;21.90;99.90;;;;;;5046137;28;20200;-82
2023/08/22 04:49:58;;;;;;;0.10;0.10;;;22.00;99.90;;;;;;5044742;28;20296;-82
2023/08/22 04:52:24;;;;;;;0.10;0.10;;;22.00;99.90;;;;;;5045708;28;20287;-82
2023/08/22 04:54:49;;;;;;;0.10;0.10;;;22.00;99.90;;;;;;5044592;28;20655;-82
2023/08/22 04:57:15;;;;;;;0.10;0.10;;;22.10;99.90;;;;;;5046167;28;20209;-81
2023/08/22 04:59:41;;;;;;;0.10;0.10;;;22.10;99.90;;;;;;5045662;28;20262;-82
2023/08/22 05:02:06;;;;;;;0.10;0.10;;;22.10;99.90;;;;;;5044772;28;20197;-81
2023/08/22 05:04:32;;;;;;;0.10;0.10;;;22.10;99.90;;;;;;5038761;28;20185;-82
2023/08/22 05:06:57;;;;;;;0.10;0.10;;;22.10;99.90;;;;;;5045754;28;20248;-82
2023/08/22 05:09:23;;;;;;;0.10;0.10;;;22.10;99.90;;;;;;5044907;28;20709;-83
2023/08/22 05:11:49;;;;;;;0.10;0.10;;;22.10;99.90;;;;;;5067003;28;20212;-83
2023/08/22 05:14:14;;;;;;;0.10;0.10;;;22.10;99.90;;;;;;5053599;28;20173;-84
2023/08/22 05:16:42;;;;;;;0.10;0.10;;;22.20;99.90;;;;;;5051837;28;20225;-84
2023/08/22 05:19:07;;;;;;;0.10;0.10;;;22.20;99.90;;;;;;5059368;28;20204;-83
2023/08/22 05:21:33;;;;;;;0.10;0.10;;;22.20;99.90;;;;;;5049804;28;20244;-85
2023/08/22 05:23:58;;;;;;;0.10;0.10;;;22.30;99.90;;;;;;5047376;28;20247;-84
2023/08/22 05:26:24;;;;;;;0.10;0.10;;;22.30;99.90;;;;;;5047632;28;20181;-84
2023/08/22 05:28:49;;;;;;;0.10;0.10;;;22.40;99.90;;;;;;5048111;28;20197;-84
2023/08/22 05:31:23;;;;;;;0.10;0.10;;;22.30;99.90;;;;;;5047715;28;20205;-83
2023/08/22 05:33:48;;;;;;;0.10;0.10;;;22.40;99.90;;;;;;5047323;28;20650;-83
2023/08/22 05:36:14;;;;;;;0.10;0.10;;;22.50;99.90;;;;;;5048155;28;20204;-83
2023/08/22 05:38:40;;;;;;;0.10;0.10;;;22.50;99.90;;;;;;5050300;28;20217;-83
2023/08/22 05:41:05;;;;;;;0.10;0.10;;;22.50;99.90;;;;;;5047819;28;20225;-83
2023/08/22 05:43:31;;;;;;;0.10;0.10;;;22.70;99.90;;;;;;5049606;28;20189;-83
2023/08/22 05:45:57;;;;;;;0.10;0.10;;;22.70;99.90;;;;;;5048317;28;20190;-83
2023/08/22 05:48:23;;;;;;;0.10;0.10;;;22.90;99.90;;;;;;5049116;28;20220;-83
2023/08/22 05:50:50;;;;;;;0.10;0.10;;;22.90;99.90;;;;;;5046665;28;20213;-83
2023/08/22 05:53:15;;;;;;;0.10;0.10;;;23.00;99.90;;;;;;5050090;28;20189;-83
2023/08/22 05:55:41;;;;;;;0.10;0.10;;;23.10;99.90;;;;;;5047578;28;20185;-83
2023/08/22 05:58:06;;;;;;;0.10;0.10;;;23.20;99.90;;;;;;5046949;28;20197;-83
2023/08/22 06:00:32;;;;;;;0.10;0.10;;;23.30;99.90;;;;;;5062304;28;20190;-83
2023/08/22 06:02:58;;;;;;;0.10;0.10;;;23.30;99.90;;;;;;5046943;28;20194;-83
2023/08/22 06:05:24;;;;;;;0.10;0.10;;;23.30;99.90;;;;;;5046820;28;20578;-83
2023/08/22 06:07:49;;;;;;;0.10;0.10;;;23.40;99.90;;;;;;5064147;28;20219;-83
2023/08/22 06:10:15;;;;;;;0.10;0.10;;;23.50;99.90;;;;;;5045639;28;20182;-83
2023/08/22 06:12:41;;;;;;;0.10;0.10;;;23.30;99.90;;;;;;5045862;28;20331;-83
2023/08/22 06:15:07;;;;;;;0.10;0.10;;;23.50;99.90;;;;;;5062114;28;20189;-86
2023/08/22 06:17:34;;;;;;;0.10;0.10;;;23.70;99.90;;;;;;5045971;28;20259;-86
2023/08/22 06:19:59;;;;;;;0.10;0.10;;;23.60;99.90;;;;;;5045790;28;20199;-85
2023/08/22 06:22:25;;;;;;;0.10;0.10;;;23.70;99.90;;;;;;5045490;28;20976;-84
2023/08/22 06:24:51;;;;;;;0.10;0.10;;;23.60;99.90;;;;;;5046109;28;20190;-83
2023/08/22 06:27:16;;;;;;;0.10;0.10;;;23.80;99.90;;;;;;5045120;28;20209;-85
2023/08/22 06:29:42;;;;;;;0.10;0.10;;;23.90;99.90;;;;;;5061193;28;20205;-82
2023/08/22 06:32:07;;;;;;;0.10;0.10;;;24.10;99.90;;;;;;5048595;28;20283;-82
2023/08/22 06:34:33;;;;;;;0.10;0.10;;;24.20;99.90;;;;;;5048746;28;20287;-82
2023/08/22 06:36:59;;;;;;;0.10;0.10;;;24.40;99.90;;;;;;5046726;28;20744;-82
2023/08/22 06:39:24;;;;;;;0.10;0.10;;;24.60;99.90;;;;;;5046579;28;20185;-82
2023/08/22 06:41:50;;;;;;;0.10;0.10;;;24.70;99.90;;;;;;5045548;28;20206;-82
2023/08/22 06:44:15;;;;;;;0.10;0.10;;;24.60;99.90;;;;;;5044019;28;20181;-82
2023/08/22 06:46:41;;;;;;;0.10;0.10;;;24.90;99.90;;;;;;5044438;28;20592;-82
2023/08/22 06:49:07;;;;;;;0.10;0.10;;;25.00;99.90;;;;;;5044373;28;20312;-82
2023/08/22 06:51:33;;;;;;;0.10;0.10;;;25.00;99.90;;;;;;5045089;28;20202;-82
2023/08/22 06:53:58;;;;;;;0.10;0.10;;;25.20;99.90;;;;;;5045498;28;20559;-82
2023/08/22 06:56:25;;;;;;;0.10;0.10;;;24.90;99.90;;;;;;5044910;28;20173;-82
2023/08/22 06:58:51;;;;;;;0.10;0.10;;;24.40;99.90;;;;;;5055477;28;20186;-82
2023/08/22 07:01:16;;;;;;;0.10;0.10;;;24.80;99.90;;;;;;5044494;28;20213;-82
2023/08/22 07:03:42;;;;;;;0.10;0.10;;;24.80;99.90;;;;;;5045201;28;20193;-82
2023/08/22 07:06:08;;;;;;;0.10;0.10;;;24.90;99.90;;;;;;5044729;28;20204;-82
2023/08/22 07:08:33;;;;;;;0.10;0.10;;;24.70;99.90;;;;;;5042100;28;20241;-82
2023/08/22 07:11:01;;;;;;;0.10;0.10;;;25.10;99.90;;;;;;5042763;28;20210;-82
2023/08/22 07:13:26;;;;;;;0.10;0.10;;;25.30;99.90;;;;;;5042387;28;20723;-82
2023/08/22 07:15:52;;;;;;;0.10;0.10;;;25.70;99.90;;;;;;5045652;28;20190;-81
2023/08/22 07:18:17;;;;;;;0.10;0.10;;;25.80;99.90;;;;;;5043659;28;20190;-82
2023/08/22 07:20:43;;;;;;;0.10;0.10;;;25.80;99.90;;;;;;5044107;28;20225;-81
2023/08/22 07:23:08;;;;;;;0.10;0.10;;;26.00;99.90;;;;;;5043830;28;20190;-82
2023/08/22 07:25:34;;;;;;;0.10;0.10;;;26.20;99.90;;;;;;5043724;28;20550;-82
2023/08/22 07:27:59;;;;;;;0.10;0.10;;;25.80;99.90;;;;;;5044413;28;20182;-82
2023/08/22 07:30:25;;;;;;;0.10;0.10;;;25.60;99.90;;;;;;5043597;28;20178;-82
2023/08/22 07:32:50;;;;;;;0.10;0.10;;;25.70;99.90;;;;;;5042906;28;20231;-82
2023/08/22 07:35:16;;;;;;;0.10;0.10;;;26.10;99.90;;;;;;5044134;28;20173;-82
2023/08/22 07:37:42;;;;;;;0.10;0.10;;;26.50;99.90;;;;;;5041925;28;20182;-82
2023/08/22 07:40:08;;;;;;;0.10;0.10;;;26.70;99.90;;;;;;5045437;28;20199;-82
2023/08/22 07:42:35;;;;;;;0.10;0.10;;;26.90;99.90;;;;;;5051869;28;20259;-82
2023/08/22 07:45:01;;;;;;;0.10;0.10;;;27.00;99.90;;;;;;5043739;28;20204;-82
2023/08/22 07:47:27;;;;;;;0.10;0.10;;;27.00;99.90;;;;;;5044803;28;20189;-82
2023/08/22 07:49:52;;;;;;;0.10;0.10;;;27.20;99.90;;;;;;5042548;28;20205;-82
2023/08/22 07:52:18;;;;;;;0.10;0.10;;;27.40;99.90;;;;;;5043457;28;20296;-82
2023/08/22 07:54:43;;;;;;;0.10;0.10;;;27.50;99.90;;;;;;5041666;28;20212;-82
2023/08/22 07:57:09;;;;;;;0.10;0.10;;;27.50;99.90;;;;;;5042322;28;20193;-82
2023/08/22 07:59:34;;;;;;;0.10;0.10;;;26.80;99.90;;;;;;5058748;28;20269;-82
2023/08/22 08:02:00;;;;;;;0.10;0.10;;;27.10;99.90;;;;;;5041211;28;21227;-82
2023/08/22 08:04:26;;;;;;;0.10;0.10;;;26.90;99.90;;;;;;5052286;28;20205;-82
2023/08/22 08:06:51;;;;;;;0.10;0.10;;;26.80;99.90;;;;;;5040995;28;20284;-82
2023/08/22 08:09:17;;;;;;;0.10;0.10;;;26.20;99.90;;;;;;5044033;28;20205;-82
2023/08/22 08:11:42;;;;;;;0.10;0.10;;;26.40;99.90;;;;;;5041372;28;20193;-82
2023/08/22 08:14:08;;;;;;;0.10;0.10;;;26.50;99.90;;;;;;5043530;28;20221;-82
2023/08/22 08:16:34;;;;;;;0.10;0.10;;;26.40;99.90;;;;;;5059731;28;20595;-82
2023/08/22 08:18:59;;;;;;;0.10;0.10;;;26.50;99.90;;;;;;5043709;28;20252;-82
2023/08/22 08:21:25;;;;;;;0.10;0.10;;;26.90;99.90;;;;;;5042325;28;20209;-82
2023/08/22 08:23:50;;;;;;;0.10;0.10;;;27.40;99.90;;;;;;5045714;28;20192;-82
2023/08/22 08:26:16;;;;;;;0.10;0.10;;;27.20;99.90;;;;;;5046048;28;20214;-82
2023/08/22 08:28:42;;;;;;;0.10;0.10;;;27.40;99.90;;;;;;5048015;28;20205;-82
2023/08/22 08:31:07;;;;;;;0.10;0.10;;;27.70;99.90;;;;;;5046201;28;20752;-82
2023/08/22 08:33:33;;;;;;;0.10;0.10;;;28.20;99.90;;;;;;5059914;28;20604;-82
2023/08/22 08:35:58;;;;;;;0.10;0.10;;;28.50;99.90;;;;;;5044543;28;20182;-82
2023/08/22 08:38:24;;;;;;;0.10;0.10;;;28.50;99.90;;;;;;5044818;28;20647;-82
2023/08/22 08:40:52;;;;;;;0.10;0.10;;;28.80;99.90;;;;;;5045220;28;20201;-82
2023/08/22 08:43:19;;;;;;;0.10;0.10;;;28.80;99.90;;;;;;5045195;28;20181;-82
2023/08/22 08:45:45;;;;;;;0.10;0.10;;;28.60;99.90;;;;;;5045480;28;20189;-82
2023/08/22 08:48:11;;;;;;;0.10;0.10;;;27.90;99.90;;;;;;5041902;28;20186;-82
2023/08/22 08:50:38;;;;;;;0.10;0.10;;;27.30;99.90;;;;;;5052334;28;20540;-82
2023/08/22 08:53:04;;;;;;;0.10;0.10;;;27.10;99.90;;;;;;5043472;28;20220;-82
2023/08/22 08:55:29;;;;;;;0.10;0.10;;;27.20;99.90;;;;;;5043584;28;20190;-82
2023/08/22 08:57:58;;;;;;;0.10;0.10;;;26.90;99.90;;;;;;5043486;28;20173;-82
2023/08/22 09:00:23;;;;;;;0.10;0.10;;;27.30;99.90;;;;;;5044136;28;20182;-82
2023/08/22 09:02:49;;;;;;;0.10;0.10;;;27.00;99.90;;;;;;5041193;28;20193;-82
2023/08/22 09:05:15;;;;;;;0.10;0.10;;;27.60;99.90;;;;;;5042346;28;20181;-83
2023/08/22 09:07:43;;;;;;;0.10;0.10;;;27.60;99.90;;;;;;5041288;28;20194;-83
2023/08/22 09:10:09;;;;;;;0.10;0.10;;;28.30;99.90;;;;;;5057572;28;20214;-84
2023/08/22 09:12:36;;;;;;;0.10;0.10;;;28.60;99.90;;;;;;5055610;28;20216;-83
2023/08/22 09:15:02;;;;;;;0.10;0.10;;;28.40;99.90;;;;;;5041449;28;20595;-82
2023/08/22 09:17:29;;;;;;;0.10;0.10;;;29.00;99.90;;;;;;5036023;28;20280;-86
2023/08/22 09:19:55;;;;;;;0.10;0.10;;;29.60;99.90;;;;;;5036767;28;20204;-86
2023/08/22 09:22:29;;;;;;;0.10;0.10;;;30.20;99.90;;;;;;5053764;28;20205;-85
2023/08/22 09:24:55;;;;;;;0.10;0.10;;;30.00;99.90;;;;;;5048365;28;20200;-82
2023/08/22 09:27:27;;;;;;;0.10;0.10;;;30.50;99.90;;;;;;5040343;28;20182;-83
2023/08/22 09:29:58;;;;;;;0.10;0.10;;;30.70;99.90;;;;;;5039172;28;20217;-83
2023/08/22 09:32:24;;;;;;;0.10;0.10;;;31.20;99.90;;;;;;5041224;28;20218;-83
2023/08/22 09:34:55;;;;;;;0.10;0.10;;;30.50;99.90;;;;;;5043572;28;20185;-82
2023/08/22 09:37:32;;;;;;;0.10;0.10;;;30.20;99.90;;;;;;5045960;28;20200;-83
2023/08/22 09:39:58;;;;;;;0.10;0.10;;;30.10;99.90;;;;;;5045635;28;20524;-82
2023/08/22 09:42:28;;;;;;;0.10;0.10;;;30.30;99.90;;;;;;5044380;28;20300;-83
2023/08/22 09:44:56;;;;;;;3.30;3.20;;;30.50;99.90;;;;;;5045420;28;20181;-83
2023/08/22 09:47:27;;;;;;;0.10;0.10;;;29.60;99.90;;;;;;5044633;28;20693;-82
2023/08/22 09:49:56;;;;;;;0.10;0.10;;;29.70;99.90;;;;;;5055089;28;20206;-83
2023/08/22 09:52:24;;;;;;;0.10;0.10;;;29.80;99.90;;;;;;5043479;28;20224;-83
2023/08/22 09:54:50;;;;;;;0.10;0.10;;;29.80;99.90;;;;;;5046393;28;20182;-83
2023/08/22 09:57:17;;;;;;;0.10;0.10;;;29.10;99.90;;;;;;5048039;28;20190;-82
2023/08/22 09:59:45;;;;;;;0.10;0.10;;;28.70;99.90;;;;;;5046034;28;20190;-84
2023/08/22 10:02:11;;;;;;;0.10;0.10;;;28.40;99.90;;;;;;5056805;28;20292;-84
2023/08/22 10:04:37;;;;;;;0.10;0.10;;;28.10;99.90;;;;;;5044454;28;20181;-83
2023/08/22 10:07:03;;;;;;;0.10;0.10;;;27.50;99.90;;;;;;5047647;28;20193;-83
2023/08/22 10:09:29;;;;;;;0.10;0.10;;;27.40;99.90;;;;;;5047363;28;20205;-83
2023/08/22 10:11:57;;;;;;;0.10;0.10;;;27.60;99.90;;;;;;5047294;28;21148;-83
2023/08/22 10:14:48;;;;;;;0.10;0.10;;;27.40;99.90;;;;;;5045973;28;20186;-83
2023/08/22 10:17:14;;;;;;;0.10;0.10;;;28.10;99.90;;;;;;5037651;28;20182;-83
2023/08/22 10:19:44;;;;;;;0.10;0.10;;;28.90;99.90;;;;;;5052218;28;20205;-82
2023/08/22 10:22:14;;;;;;;0.10;0.10;;;29.40;99.90;;;;;;5044229;28;20205;-82
2023/08/22 10:24:41;;;;;;;0.10;0.10;;;30.00;99.90;;;;;;5046634;28;20170;-84
2023/08/22 10:27:16;;;;;;;0.10;0.10;;;30.20;99.90;;;;;;5043794;28;20546;-85
2023/08/22 10:29:46;;;;;;;0.10;0.10;;;30.60;99.90;;;;;;5045068;28;20231;-84
2023/08/22 10:32:12;;;;;;;0.10;0.10;;;31.00;99.90;;;;;;5038967;28;20934;-82
2023/08/22 10:34:37;;;;;;;0.10;0.10;;;31.30;99.90;;;;;;5044080;28;20185;-82
2023/08/22 10:37:03;;;;;;;0.10;0.10;;;31.20;99.90;;;;;;5045848;28;20550;-82
2023/08/22 10:39:37;;;;;;;0.10;0.10;;;31.20;99.90;;;;;;5043577;28;20182;-82
2023/08/22 10:42:03;;;;;;;0.10;0.10;;;31.20;99.90;;;;;;5043695;28;20345;-82
2023/08/22 10:44:30;;;;;;;0.10;0.10;;;31.10;99.90;;;;;;5043625;28;20214;-82
2023/08/22 10:47:07;;;;;;;0.10;0.10;;;31.20;99.90;;;;;;5039959;28;20194;-84
2023/08/22 10:49:34;;;;;;;0.10;0.10;;;31.10;99.90;;;;;;5044381;28;20241;-83
2023/08/22 10:52:07;;;;;;;0.10;0.10;;;30.90;99.90;;;;;;5045623;28;20296;-83
2023/08/22 10:54:53;;;;;;;0.10;0.10;;;30.80;99.90;;;;;;5043691;28;20762;-82
2023/08/22 10:57:19;;;;;;;0.10;0.10;;;31.00;99.90;;;;;;5042973;28;20186;-83
2023/08/22 10:59:59;;;;;;;0.10;0.10;;;31.70;99.90;;;;;;5044150;28;20177;-83
2023/08/22 11:02:36;;;;;;;0.10;0.10;;;32.20;99.90;;;;;;5053703;28;20201;-84
2023/08/22 11:05:03;;;;;;;0.10;0.10;;;32.40;99.90;;;;;;5045545;28;20245;-83
2023/08/22 11:07:30;;;;;;;0.10;0.10;;;32.20;99.90;;;;;;5043066;28;20206;-83
2023/08/22 11:09:57;;;;;;;0.10;0.10;;;31.90;99.90;;;;;;5047421;28;20217;-83
2023/08/22 11:12:24;;;;;;;0.10;0.10;;;31.80;99.90;;;;;;5046583;28;20201;-84
2023/08/22 11:14:53;;;;;;;0.10;0.10;;;30.80;99.90;;;;;;5046187;28;20265;-84
2023/08/22 11:17:22;;;;;;;0.10;0.10;;;30.50;99.90;;;;;;5043138;28;20697;-84
2023/08/22 11:19:49;;;;;;;0.10;0.10;;;30.70;99.90;;;;;;5043343;28;20186;-85
2023/08/22 11:22:15;;;;;;;0.10;0.10;;;30.50;99.90;;;;;;5042102;28;20209;-83
2023/08/22 11:24:49;;;;;;;0.10;0.10;;;30.50;99.90;;;;;;5044088;28;20189;-83
2023/08/22 11:27:16;;;;;;;0.10;0.10;;;30.60;99.90;;;;;;5045007;28;20267;-83
2023/08/22 11:29:44;;;;;;;0.10;0.10;;;30.80;99.90;;;;;;5051947;28;20213;-83
2023/08/22 11:32:29;;;;;;;0.10;0.10;;;31.20;99.90;;;;;;5043043;28;20212;-83
2023/08/22 11:35:05;;;;;;;0.10;0.10;;;31.40;99.90;;;;;;5041972;28;20181;-83
2023/08/22 11:37:36;;;;;;;0.10;0.10;;;31.60;99.90;;;;;;5042731;28;20553;-82
2023/08/22 11:40:04;;;;;;;0.10;0.10;;;31.70;99.90;;;;;;5042705;28;20216;-83
2023/08/22 11:42:33;;;;;;;0.10;0.10;;;31.70;99.90;;;;;;5063070;28;20216;-83
2023/08/22 11:45:22;;;;;;;0.10;0.10;;;31.80;99.90;;;;;;5049341;28;20697;-83
2023/08/22 11:47:53;;;;;;;0.10;0.10;;;31.80;99.90;;;;;;5042321;28;20190;-82
2023/08/22 11:50:28;;;;;;;0.10;0.10;;;31.50;99.90;;;;;;5042932;28;20217;-82
2023/08/22 11:52:56;;;;;;;0.10;0.10;;;31.70;99.90;;;;;;5043340;28;20178;-83
2023/08/22 11:55:32;;;;;;;0.10;0.10;;;31.80;99.90;;;;;;5044578;28;20200;-83
2023/08/22 11:58:01;;;;;;;0.10;0.10;;;31.60;99.90;;;;;;5046681;28;20200;-83
2023/08/22 12:00:28;;;;;;;0.10;0.10;;;31.40;99.90;;;;;;5044731;28;20193;-83
2023/08/22 12:02:55;;;;;;;0.10;0.10;;;30.50;99.90;;;;;;5042246;28;20194;-83
2023/08/22 12:05:50;;;;;;;0.10;0.10;;;30.70;99.90;;;;;;5042460;28;20189;-83
2023/08/22 12:08:19;;;;;;;0.10;0.10;;;30.60;99.90;;;;;;5032708;28;20207;-83
2023/08/22 12:10:49;;;;;;;0.10;0.10;;;30.70;99.90;;;;;;5042969;28;20204;-84
2023/08/22 12:13:18;;;;;;;0.10;0.10;;;31.00;99.90;;;;;;5042068;28;20174;-83
2023/08/22 12:15:45;;;;;;;0.10;0.10;;;31.50;99.90;;;;;;5053115;28;20181;-84
2023/08/22 12:18:11;;;;;;;0.10;0.10;;;31.80;99.90;;;;;;5041812;28;20905;-83
2023/08/22 12:20:39;;;;;;;0.10;0.10;;;31.90;99.90;;;;;;5043814;28;20460;-83
2023/08/22 12:23:06;;;;;;;0.10;0.10;;;31.40;99.90;;;;;;5046664;28;20260;-83
2023/08/22 12:25:32;;;;;;;0.10;0.10;;;30.90;99.90;;;;;;5044433;28;20177;-83
2023/08/22 12:27:58;;;;;;;0.10;0.10;;;31.10;99.90;;;;;;5044479;28;20181;-83
2023/08/22 12:30:23;;;;;;;0.10;0.10;;;31.70;99.90;;;;;;5040316;28;20220;-83
2023/08/22 12:32:49;;;;;;;0.10;0.10;;;32.00;99.90;;;;;;5043484;28;20228;-83
2023/08/22 12:35:15;;;;;;;0.10;0.10;;;31.80;99.90;;;;;;5046270;28;20726;-83
2023/08/22 12:37:40;;;;;;;0.10;0.10;;;32.00;99.90;;;;;;5045376;28;20200;-83
2023/08/22 12:40:12;;;;;;;0.10;0.10;;;32.10;99.90;;;;;;5043686;28;20734;-83
2023/08/22 12:42:45;;;;;;;0.10;0.10;;;32.20;99.90;;;;;;5044425;28;20217;-83
2023/08/22 12:45:11;;;;;;;0.10;0.10;;;32.40;99.90;;;;;;5041879;28;20667;-83
2023/08/22 12:47:38;;;;;;;0.10;0.10;;;32.40;99.90;;;;;;5045546;28;20238;-83